Terminal Aerodrome Forecast
Issued by NWS

Home | Current Version | Previous Version | Graphics & Text | Print | Product List | Glossary On
Versions: 1 2 3 4 5 6 7 8 9 10 11 12 13 14 15 16 17 18 19 20
000
FTUS42 KMHX 260945 AAB
TAFOAJ
TAF AMD
KOAJ 260945Z 2610/2706 VRB04KT P6SM BKN007
     FM261300 VRB04KT P6SM SCT007 BKN015
     FM261500 28007KT P6SM SCT040
      AMD LTD TO CLD VIS AND WIND=

USA.gov is the U.S. government's official web portal to all federal, state and local government web resources and services.